sensor_id;sensor_type;location;lat;lon;timestamp;temperature;humidity
64689;DHT22;62504;46.070;14.492;2023-03-01T00:01:10;4.30;99.90
64689;DHT22;62504;46.070;14.492;2023-03-01T00:03:37;4.20;99.90
64689;DHT22;62504;46.070;14.492;2023-03-01T00:06:03;4.20;99.90
64689;DHT22;62504;46.070;14.492;2023-03-01T00:08:30;4.20;99.90
64689;DHT22;62504;46.070;14.492;2023-03-01T00:13:35;4.20;99.90
64689;DHT22;62504;46.070;14.492;2023-03-01T00:16:06;4.20;99.90
64689;DHT22;62504;46.070;14.492;2023-03-01T00:18:32;4.10;99.90
64689;DHT22;62504;46.070;14.492;2023-03-01T00:20:58;4.10;99.90
64689;DHT22;62504;46.070;14.492;2023-03-01T00:23:24;4.20;99.90
64689;DHT22;62504;46.070;14.492;2023-03-01T00:25:50;4.10;99.90
64689;DHT22;62504;46.070;14.492;2023-03-01T00:28:16;4.10;99.90
64689;DHT22;62504;46.070;14.492;2023-03-01T00:30:42;4.10;99.90
64689;DHT22;62504;46.070;14.492;2023-03-01T00:33:08;4.00;99.90
64689;DHT22;62504;46.070;14.492;2023-03-01T00:35:34;4.00;99.90
64689;DHT22;62504;46.070;14.492;2023-03-01T00:38:00;4.00;99.90
64689;DHT22;62504;46.070;14.492;2023-03-01T00:40:29;4.00;99.90
64689;DHT22;62504;46.070;14.492;2023-03-01T00:42:56;4.00;99.90
64689;DHT22;62504;46.070;14.492;2023-03-01T00:45:22;4.00;99.90
64689;DHT22;62504;46.070;14.492;2023-03-01T00:47:49;4.00;99.90
64689;DHT22;62504;46.070;14.492;2023-03-01T00:50:15;4.00;99.90
64689;DHT22;62504;46.070;14.492;2023-03-01T00:52:40;4.00;99.90
64689;DHT22;62504;46.070;14.492;2023-03-01T00:55:07;4.00;99.90
64689;DHT22;62504;46.070;14.492;2023-03-01T00:57:33;4.10;99.90
64689;DHT22;62504;46.070;14.492;2023-03-01T00:59:59;4.10;99.90
64689;DHT22;62504;46.070;14.492;2023-03-01T01:02:24;4.00;99.90
64689;DHT22;62504;46.070;14.492;2023-03-01T01:04:50;3.90;99.90
64689;DHT22;62504;46.070;14.492;2023-03-01T01:07:16;4.00;99.90
64689;DHT22;62504;46.070;14.492;2023-03-01T01:09:42;4.00;99.90
64689;DHT22;62504;46.070;14.492;2023-03-01T01:12:08;4.00;99.90
64689;DHT22;62504;46.070;14.492;2023-03-01T01:14:35;4.00;99.90
64689;DHT22;62504;46.070;14.492;2023-03-01T01:17:01;3.90;99.90
64689;DHT22;62504;46.070;14.492;2023-03-01T01:19:27;3.90;99.90
64689;DHT22;62504;46.070;14.492;2023-03-01T01:21:53;3.90;99.90
64689;DHT22;62504;46.070;14.492;2023-03-01T01:24:19;3.80;99.90
64689;DHT22;62504;46.070;14.492;2023-03-01T01:26:45;4.00;99.90
64689;DHT22;62504;46.070;14.492;2023-03-01T01:29:11;4.00;99.90
64689;DHT22;62504;46.070;14.492;2023-03-01T01:31:39;3.90;99.90
64689;DHT22;62504;46.070;14.492;2023-03-01T01:34:08;3.90;99.90
64689;DHT22;62504;46.070;14.492;2023-03-01T01:36:34;3.80;99.90
64689;DHT22;62504;46.070;14.492;2023-03-01T01:39:00;3.80;99.90
64689;DHT22;62504;46.070;14.492;2023-03-01T01:41:28;3.80;99.90
64689;DHT22;62504;46.070;14.492;2023-03-01T01:44:23;3.80;99.90
64689;DHT22;62504;46.070;14.492;2023-03-01T01:47:00;4.00;99.90
64689;DHT22;62504;46.070;14.492;2023-03-01T01:49:29;3.90;99.90
64689;DHT22;62504;46.070;14.492;2023-03-01T01:52:16;4.00;99.90
64689;DHT22;62504;46.070;14.492;2023-03-01T01:54:56;4.00;99.90
64689;DHT22;62504;46.070;14.492;2023-03-01T01:57:35;3.90;99.90
64689;DHT22;62504;46.070;14.492;2023-03-01T02:00:06;4.00;99.90
64689;DHT22;62504;46.070;14.492;2023-03-01T02:02:32;3.90;99.90
64689;DHT22;62504;46.070;14.492;2023-03-01T02:08:06;3.90;99.90
64689;DHT22;62504;46.070;14.492;2023-03-01T02:10:34;4.00;99.90
64689;DHT22;62504;46.070;14.492;2023-03-01T02:13:01;4.00;99.90
64689;DHT22;62504;46.070;14.492;2023-03-01T02:15:33;4.00;99.90
64689;DHT22;62504;46.070;14.492;2023-03-01T02:17:59;3.90;99.90
64689;DHT22;62504;46.070;14.492;2023-03-01T02:23:19;3.90;99.90
64689;DHT22;62504;46.070;14.492;2023-03-01T02:28:35;3.90;99.90
64689;DHT22;62504;46.070;14.492;2023-03-01T02:31:03;4.00;99.90
64689;DHT22;62504;46.070;14.492;2023-03-01T02:33:48;3.90;99.90
64689;DHT22;62504;46.070;14.492;2023-03-01T02:36:19;3.90;99.90
64689;DHT22;62504;46.070;14.492;2023-03-01T02:38:45;4.00;99.90
64689;DHT22;62504;46.070;14.492;2023-03-01T02:41:15;3.80;99.90
64689;DHT22;62504;46.070;14.492;2023-03-01T02:43:41;3.90;99.90
64689;DHT22;62504;46.070;14.492;2023-03-01T02:46:14;3.90;99.90
64689;DHT22;62504;46.070;14.492;2023-03-01T02:48:44;3.80;99.90
64689;DHT22;62504;46.070;14.492;2023-03-01T02:56:36;3.90;99.90
64689;DHT22;62504;46.070;14.492;2023-03-01T02:59:02;4.00;99.90
64689;DHT22;62504;46.070;14.492;2023-03-01T03:01:28;3.90;99.90
64689;DHT22;62504;46.070;14.492;2023-03-01T03:04:09;3.90;99.90
64689;DHT22;62504;46.070;14.492;2023-03-01T03:06:35;3.90;99.90
64689;DHT22;62504;46.070;14.492;2023-03-01T03:09:02;3.70;99.90
64689;DHT22;62504;46.070;14.492;2023-03-01T03:11:28;3.90;99.90
64689;DHT22;62504;46.070;14.492;2023-03-01T03:13:54;3.80;99.90
64689;DHT22;62504;46.070;14.492;2023-03-01T03:16:21;3.80;99.90
64689;DHT22;62504;46.070;14.492;2023-03-01T03:18:47;3.80;99.90
64689;DHT22;62504;46.070;14.492;2023-03-01T03:21:14;4.10;99.90
64689;DHT22;62504;46.070;14.492;2023-03-01T03:23:40;3.90;99.90
64689;DHT22;62504;46.070;14.492;2023-03-01T03:26:05;3.40;99.90
64689;DHT22;62504;46.070;14.492;2023-03-01T03:28:32;3.30;99.90
64689;DHT22;62504;46.070;14.492;2023-03-01T03:30:59;3.30;99.90
64689;DHT22;62504;46.070;14.492;2023-03-01T03:33:30;3.40;99.90
64689;DHT22;62504;46.070;14.492;2023-03-01T03:35:55;3.30;99.90
64689;DHT22;62504;46.070;14.492;2023-03-01T03:38:22;3.50;99.90
64689;DHT22;62504;46.070;14.492;2023-03-01T03:40:49;3.50;99.90
64689;DHT22;62504;46.070;14.492;2023-03-01T03:43:21;3.40;99.90
64689;DHT22;62504;46.070;14.492;2023-03-01T03:45:48;3.40;99.90
64689;DHT22;62504;46.070;14.492;2023-03-01T03:48:15;3.40;99.90
64689;DHT22;62504;46.070;14.492;2023-03-01T03:50:41;3.60;99.90
64689;DHT22;62504;46.070;14.492;2023-03-01T03:53:12;3.80;99.90
64689;DHT22;62504;46.070;14.492;2023-03-01T03:55:38;3.80;99.90
64689;DHT22;62504;46.070;14.492;2023-03-01T03:58:06;3.60;99.90
64689;DHT22;62504;46.070;14.492;2023-03-01T04:03:02;3.30;99.90
64689;DHT22;62504;46.070;14.492;2023-03-01T04:05:29;3.20;99.90
64689;DHT22;62504;46.070;14.492;2023-03-01T04:07:55;3.30;99.90
64689;DHT22;62504;46.070;14.492;2023-03-01T04:10:36;3.10;99.90
64689;DHT22;62504;46.070;14.492;2023-03-01T04:13:03;3.20;99.90
64689;DHT22;62504;46.070;14.492;2023-03-01T04:15:30;3.30;99.90
64689;DHT22;62504;46.070;14.492;2023-03-01T04:17:56;3.50;99.90
64689;DHT22;62504;46.070;14.492;2023-03-01T04:20:26;3.60;99.90
64689;DHT22;62504;46.070;14.492;2023-03-01T04:23:05;3.30;99.90
64689;DHT22;62504;46.070;14.492;2023-03-01T04:25:55;3.30;99.90
64689;DHT22;62504;46.070;14.492;2023-03-01T04:28:32;3.10;99.90
64689;DHT22;62504;46.070;14.492;2023-03-01T04:31:10;2.90;99.90
64689;DHT22;62504;46.070;14.492;2023-03-01T04:33:51;3.10;99.90
64689;DHT22;62504;46.070;14.492;2023-03-01T04:36:18;3.20;99.90
64689;DHT22;62504;46.070;14.492;2023-03-01T04:38:44;3.10;99.90
64689;DHT22;62504;46.070;14.492;2023-03-01T04:41:13;2.90;99.90
64689;DHT22;62504;46.070;14.492;2023-03-01T04:43:39;2.90;99.90
64689;DHT22;62504;46.070;14.492;2023-03-01T04:46:07;2.80;99.90
64689;DHT22;62504;46.070;14.492;2023-03-01T04:48:35;3.00;99.90
64689;DHT22;62504;46.070;14.492;2023-03-01T04:51:01;2.90;99.90
64689;DHT22;62504;46.070;14.492;2023-03-01T04:53:28;3.00;99.90
64689;DHT22;62504;46.070;14.492;2023-03-01T04:55:55;3.00;99.90
64689;DHT22;62504;46.070;14.492;2023-03-01T04:58:26;2.90;99.90
64689;DHT22;62504;46.070;14.492;2023-03-01T05:00:52;2.80;99.90
64689;DHT22;62504;46.070;14.492;2023-03-01T05:03:18;2.80;99.90
64689;DHT22;62504;46.070;14.492;2023-03-01T05:05:45;2.70;99.90
64689;DHT22;62504;46.070;14.492;2023-03-01T05:08:12;2.60;99.90
64689;DHT22;62504;46.070;14.492;2023-03-01T05:10:48;2.60;99.90
64689;DHT22;62504;46.070;14.492;2023-03-01T05:13:14;2.70;99.90
64689;DHT22;62504;46.070;14.492;2023-03-01T05:15:56;2.70;99.90
64689;DHT22;62504;46.070;14.492;2023-03-01T05:18:26;2.80;99.90
64689;DHT22;62504;46.070;14.492;2023-03-01T05:20:56;2.70;99.90
64689;DHT22;62504;46.070;14.492;2023-03-01T05:23:26;2.80;99.90
64689;DHT22;62504;46.070;14.492;2023-03-01T05:25:52;2.90;99.90
64689;DHT22;62504;46.070;14.492;2023-03-01T05:28:19;3.00;99.90
64689;DHT22;62504;46.070;14.492;2023-03-01T05:30:46;2.80;99.90
64689;DHT22;62504;46.070;14.492;2023-03-01T05:33:11;3.20;99.90
64689;DHT22;62504;46.070;14.492;2023-03-01T05:35:41;3.10;99.90
64689;DHT22;62504;46.070;14.492;2023-03-01T05:38:08;3.00;99.90
64689;DHT22;62504;46.070;14.492;2023-03-01T05:40:34;3.00;99.90
64689;DHT22;62504;46.070;14.492;2023-03-01T05:43:00;2.90;99.90
64689;DHT22;62504;46.070;14.492;2023-03-01T05:45:26;2.80;99.90
64689;DHT22;62504;46.070;14.492;2023-03-01T05:47:53;2.70;99.90
64689;DHT22;62504;46.070;14.492;2023-03-01T05:50:23;2.70;99.90
64689;DHT22;62504;46.070;14.492;2023-03-01T05:52:51;2.80;99.90
64689;DHT22;62504;46.070;14.492;2023-03-01T05:55:19;2.80;99.90
64689;DHT22;62504;46.070;14.492;2023-03-01T05:57:45;2.70;99.90
64689;DHT22;62504;46.070;14.492;2023-03-01T06:00:12;3.00;99.90
64689;DHT22;62504;46.070;14.492;2023-03-01T06:02:38;2.90;99.90
64689;DHT22;62504;46.070;14.492;2023-03-01T06:05:09;2.80;99.90
64689;DHT22;62504;46.070;14.492;2023-03-01T06:07:35;3.10;99.90
64689;DHT22;62504;46.070;14.492;2023-03-01T06:10:01;3.00;99.90
64689;DHT22;62504;46.070;14.492;2023-03-01T06:12:39;2.90;99.90
64689;DHT22;62504;46.070;14.492;2023-03-01T06:15:07;3.00;99.90
64689;DHT22;62504;46.070;14.492;2023-03-01T06:17:35;2.80;99.90
64689;DHT22;62504;46.070;14.492;2023-03-01T06:20:08;2.90;99.90
64689;DHT22;62504;46.070;14.492;2023-03-01T06:22:35;3.00;99.90
64689;DHT22;62504;46.070;14.492;2023-03-01T06:25:01;2.90;99.90
64689;DHT22;62504;46.070;14.492;2023-03-01T06:27:26;3.00;99.90
64689;DHT22;62504;46.070;14.492;2023-03-01T06:29:52;2.90;99.90
64689;DHT22;62504;46.070;14.492;2023-03-01T06:32:18;3.00;99.90
64689;DHT22;62504;46.070;14.492;2023-03-01T06:34:43;3.00;99.90
64689;DHT22;62504;46.070;14.492;2023-03-01T06:37:09;3.00;99.90
64689;DHT22;62504;46.070;14.492;2023-03-01T06:39:35;3.00;99.90
64689;DHT22;62504;46.070;14.492;2023-03-01T06:42:01;3.00;99.90
64689;DHT22;62504;46.070;14.492;2023-03-01T06:44:27;3.00;99.90
64689;DHT22;62504;46.070;14.492;2023-03-01T06:46:52;2.90;99.90
64689;DHT22;62504;46.070;14.492;2023-03-01T06:49:18;3.00;99.90
64689;DHT22;62504;46.070;14.492;2023-03-01T06:51:45;3.10;99.90
64689;DHT22;62504;46.070;14.492;2023-03-01T06:54:11;3.10;99.90
64689;DHT22;62504;46.070;14.492;2023-03-01T06:56:37;3.20;99.90
64689;DHT22;62504;46.070;14.492;2023-03-01T06:59:03;3.30;99.90
64689;DHT22;62504;46.070;14.492;2023-03-01T07:01:30;3.20;99.90
64689;DHT22;62504;46.070;14.492;2023-03-01T07:03:56;3.20;99.90
64689;DHT22;62504;46.070;14.492;2023-03-01T07:06:22;3.30;99.90
64689;DHT22;62504;46.070;14.492;2023-03-01T07:08:48;3.20;99.90
64689;DHT22;62504;46.070;14.492;2023-03-01T07:11:14;3.30;99.90
64689;DHT22;62504;46.070;14.492;2023-03-01T07:13:40;3.50;99.90
64689;DHT22;62504;46.070;14.492;2023-03-01T07:16:06;3.40;99.90
64689;DHT22;62504;46.070;14.492;2023-03-01T07:18:32;3.30;99.90
64689;DHT22;62504;46.070;14.492;2023-03-01T07:20:57;3.40;99.90
64689;DHT22;62504;46.070;14.492;2023-03-01T07:23:23;3.30;99.90
64689;DHT22;62504;46.070;14.492;2023-03-01T07:25:53;3.50;99.90
64689;DHT22;62504;46.070;14.492;2023-03-01T07:28:19;3.20;99.90
64689;DHT22;62504;46.070;14.492;2023-03-01T07:30:45;3.10;99.90
64689;DHT22;62504;46.070;14.492;2023-03-01T07:33:11;3.30;99.90
64689;DHT22;62504;46.070;14.492;2023-03-01T07:35:36;3.30;99.90
64689;DHT22;62504;46.070;14.492;2023-03-01T07:38:02;3.20;99.90
64689;DHT22;62504;46.070;14.492;2023-03-01T07:40:28;3.40;99.90
64689;DHT22;62504;46.070;14.492;2023-03-01T07:42:57;3.50;99.90
64689;DHT22;62504;46.070;14.492;2023-03-01T07:45:26;3.50;99.90
64689;DHT22;62504;46.070;14.492;2023-03-01T07:47:52;3.40;99.90
64689;DHT22;62504;46.070;14.492;2023-03-01T07:50:19;3.40;99.90
64689;DHT22;62504;46.070;14.492;2023-03-01T07:52:46;3.30;99.90
64689;DHT22;62504;46.070;14.492;2023-03-01T07:55:11;3.40;99.90
64689;DHT22;62504;46.070;14.492;2023-03-01T07:57:37;3.50;99.90
64689;DHT22;62504;46.070;14.492;2023-03-01T08:00:04;3.50;99.90
64689;DHT22;62504;46.070;14.492;2023-03-01T08:02:30;3.50;99.90
64689;DHT22;62504;46.070;14.492;2023-03-01T08:04:56;3.70;99.90
64689;DHT22;62504;46.070;14.492;2023-03-01T08:07:22;3.70;99.90
64689;DHT22;62504;46.070;14.492;2023-03-01T08:09:48;4.00;99.90
64689;DHT22;62504;46.070;14.492;2023-03-01T08:12:13;4.10;99.90
64689;DHT22;62504;46.070;14.492;2023-03-01T08:14:41;4.10;99.90
64689;DHT22;62504;46.070;14.492;2023-03-01T08:17:07;4.00;99.90
64689;DHT22;62504;46.070;14.492;2023-03-01T08:19:32;4.10;99.90
64689;DHT22;62504;46.070;14.492;2023-03-01T08:22:02;4.00;99.90
64689;DHT22;62504;46.070;14.492;2023-03-01T08:24:28;4.00;99.90
64689;DHT22;62504;46.070;14.492;2023-03-01T08:26:54;4.00;99.90
64689;DHT22;62504;46.070;14.492;2023-03-01T08:29:21;3.90;99.90
64689;DHT22;62504;46.070;14.492;2023-03-01T08:31:48;4.00;99.90
64689;DHT22;62504;46.070;14.492;2023-03-01T08:34:15;4.10;99.90
64689;DHT22;62504;46.070;14.492;2023-03-01T08:36:44;4.00;99.90
64689;DHT22;62504;46.070;14.492;2023-03-01T08:39:12;4.00;99.90
64689;DHT22;62504;46.070;14.492;2023-03-01T08:41:39;4.00;99.90
64689;DHT22;62504;46.070;14.492;2023-03-01T08:44:05;4.00;99.90
64689;DHT22;62504;46.070;14.492;2023-03-01T08:46:36;4.00;99.90
64689;DHT22;62504;46.070;14.492;2023-03-01T08:49:11;4.10;99.90
64689;DHT22;62504;46.070;14.492;2023-03-01T08:51:37;3.80;99.90
64689;DHT22;62504;46.070;14.492;2023-03-01T08:54:05;4.20;99.90
64689;DHT22;62504;46.070;14.492;2023-03-01T08:56:31;4.20;99.90
64689;DHT22;62504;46.070;14.492;2023-03-01T08:58:56;4.30;99.90
64689;DHT22;62504;46.070;14.492;2023-03-01T09:01:22;4.30;99.90
64689;DHT22;62504;46.070;14.492;2023-03-01T09:03:48;4.50;99.90
64689;DHT22;62504;46.070;14.492;2023-03-01T09:06:14;4.30;99.90
64689;DHT22;62504;46.070;14.492;2023-03-01T09:08:43;4.30;99.90
64689;DHT22;62504;46.070;14.492;2023-03-01T09:11:11;4.40;99.90
64689;DHT22;62504;46.070;14.492;2023-03-01T09:13:37;4.40;99.90
64689;DHT22;62504;46.070;14.492;2023-03-01T09:16:04;4.30;99.90
64689;DHT22;62504;46.070;14.492;2023-03-01T09:18:30;4.40;99.90
64689;DHT22;62504;46.070;14.492;2023-03-01T09:21:11;4.20;99.90
64689;DHT22;62504;46.070;14.492;2023-03-01T09:23:40;4.40;99.90
64689;DHT22;62504;46.070;14.492;2023-03-01T09:26:07;4.40;99.90
64689;DHT22;62504;46.070;14.492;2023-03-01T09:28:35;4.20;99.90
64689;DHT22;62504;46.070;14.492;2023-03-01T09:31:02;4.10;99.90
64689;DHT22;62504;46.070;14.492;2023-03-01T09:33:29;4.20;99.90
64689;DHT22;62504;46.070;14.492;2023-03-01T09:36:03;4.10;99.90
64689;DHT22;62504;46.070;14.492;2023-03-01T09:38:29;3.90;99.90
64689;DHT22;62504;46.070;14.492;2023-03-01T09:40:55;4.00;99.90
64689;DHT22;62504;46.070;14.492;2023-03-01T09:46:05;4.20;99.90
64689;DHT22;62504;46.070;14.492;2023-03-01T09:48:38;4.40;99.90
64689;DHT22;62504;46.070;14.492;2023-03-01T09:51:12;4.20;99.90
64689;DHT22;62504;46.070;14.492;2023-03-01T09:53:39;4.30;99.90
64689;DHT22;62504;46.070;14.492;2023-03-01T09:56:27;4.30;99.90
64689;DHT22;62504;46.070;14.492;2023-03-01T10:02:41;4.40;99.90
64689;DHT22;62504;46.070;14.492;2023-03-01T10:10:32;4.70;99.90
64689;DHT22;62504;46.070;14.492;2023-03-01T10:13:02;4.70;99.90
64689;DHT22;62504;46.070;14.492;2023-03-01T10:15:40;4.90;99.90
64689;DHT22;62504;46.070;14.492;2023-03-01T10:18:19;5.00;99.90
64689;DHT22;62504;46.070;14.492;2023-03-01T10:20:53;5.00;99.90
64689;DHT22;62504;46.070;14.492;2023-03-01T10:23:22;4.90;99.90
64689;DHT22;62504;46.070;14.492;2023-03-01T10:30:51;5.00;99.90
64689;DHT22;62504;46.070;14.492;2023-03-01T10:33:20;4.90;99.90
64689;DHT22;62504;46.070;14.492;2023-03-01T10:35:47;4.80;99.90
64689;DHT22;62504;46.070;14.492;2023-03-01T10:38:15;4.50;99.90
64689;DHT22;62504;46.070;14.492;2023-03-01T10:43:30;5.00;99.90
64689;DHT22;62504;46.070;14.492;2023-03-01T10:45:57;5.00;99.90
64689;DHT22;62504;46.070;14.492;2023-03-01T10:48:25;5.10;99.90
64689;DHT22;62504;46.070;14.492;2023-03-01T10:53:33;5.20;99.90
64689;DHT22;62504;46.070;14.492;2023-03-01T10:56:06;5.30;99.90
64689;DHT22;62504;46.070;14.492;2023-03-01T10:58:34;5.20;99.90
64689;DHT22;62504;46.070;14.492;2023-03-01T11:01:27;5.20;99.90
64689;DHT22;62504;46.070;14.492;2023-03-01T11:06:34;5.10;99.90
64689;DHT22;62504;46.070;14.492;2023-03-01T11:09:21;5.10;99.90
64689;DHT22;62504;46.070;14.492;2023-03-01T11:11:55;5.20;99.90
64689;DHT22;62504;46.070;14.492;2023-03-01T11:14:35;5.10;99.90
64689;DHT22;62504;46.070;14.492;2023-03-01T11:17:21;5.10;99.90
64689;DHT22;62504;46.070;14.492;2023-03-01T11:20:02;5.20;99.90
64689;DHT22;62504;46.070;14.492;2023-03-01T11:22:30;5.20;99.90
64689;DHT22;62504;46.070;14.492;2023-03-01T11:24:58;4.90;99.90
64689;DHT22;62504;46.070;14.492;2023-03-01T11:27:33;4.90;99.90
64689;DHT22;62504;46.070;14.492;2023-03-01T11:30:20;4.80;99.90
64689;DHT22;62504;46.070;14.492;2023-03-01T11:35:57;4.80;99.90
64689;DHT22;62504;46.070;14.492;2023-03-01T11:38:27;4.80;99.90
64689;DHT22;62504;46.070;14.492;2023-03-01T12:10:57;5.10;99.90
64689;DHT22;62504;46.070;14.492;2023-03-01T12:16:15;5.00;99.90
64689;DHT22;62504;46.070;14.492;2023-03-01T12:22:03;5.10;99.90
64689;DHT22;62504;46.070;14.492;2023-03-01T12:24:55;5.20;99.90
64689;DHT22;62504;46.070;14.492;2023-03-01T12:33:00;5.30;99.90
64689;DHT22;62504;46.070;14.492;2023-03-01T12:38:42;5.10;99.90
64689;DHT22;62504;46.070;14.492;2023-03-01T12:49:18;5.40;99.90
64689;DHT22;62504;46.070;14.492;2023-03-01T12:54:28;5.30;99.90
64689;DHT22;62504;46.070;14.492;2023-03-01T12:56:57;5.30;99.90
64689;DHT22;62504;46.070;14.492;2023-03-01T12:59:31;5.20;99.90
64689;DHT22;62504;46.070;14.492;2023-03-01T13:02:21;5.20;99.90
64689;DHT22;62504;46.070;14.492;2023-03-01T13:05:16;5.30;99.90
64689;DHT22;62504;46.070;14.492;2023-03-01T13:17:53;5.50;99.90
64689;DHT22;62504;46.070;14.492;2023-03-01T13:20:44;5.50;99.90
64689;DHT22;62504;46.070;14.492;2023-03-01T13:31:04;5.40;99.90
64689;DHT22;62504;46.070;14.492;2023-03-01T13:36:00;5.40;99.90
64689;DHT22;62504;46.070;14.492;2023-03-01T13:46:48;5.20;99.90
64689;DHT22;62504;46.070;14.492;2023-03-01T13:49:18;5.20;99.90
64689;DHT22;62504;46.070;14.492;2023-03-01T13:51:48;5.20;99.90
64689;DHT22;62504;46.070;14.492;2023-03-01T13:54:25;5.30;99.90
64689;DHT22;62504;46.070;14.492;2023-03-01T13:56:51;5.40;99.90
64689;DHT22;62504;46.070;14.492;2023-03-01T13:59:19;5.20;99.90
64689;DHT22;62504;46.070;14.492;2023-03-01T14:01:55;5.30;99.90
64689;DHT22;62504;46.070;14.492;2023-03-01T14:04:29;5.30;99.90
64689;DHT22;62504;46.070;14.492;2023-03-01T14:07:26;5.50;99.90
64689;DHT22;62504;46.070;14.492;2023-03-01T14:09:58;5.60;99.90
64689;DHT22;62504;46.070;14.492;2023-03-01T14:15:29;5.40;99.90
64689;DHT22;62504;46.070;14.492;2023-03-01T14:18:04;5.30;99.90
64689;DHT22;62504;46.070;14.492;2023-03-01T14:20:43;5.30;99.90
64689;DHT22;62504;46.070;14.492;2023-03-01T14:23:22;5.20;99.90
64689;DHT22;62504;46.070;14.492;2023-03-01T14:25:58;5.40;99.90
64689;DHT22;62504;46.070;14.492;2023-03-01T14:28:31;5.20;99.90
64689;DHT22;62504;46.070;14.492;2023-03-01T14:31:03;5.20;99.90
64689;DHT22;62504;46.070;14.492;2023-03-01T14:36:28;5.30;99.90
64689;DHT22;62504;46.070;14.492;2023-03-01T14:38:54;5.20;99.90
64689;DHT22;62504;46.070;14.492;2023-03-01T14:41:25;5.30;99.90
64689;DHT22;62504;46.070;14.492;2023-03-01T14:43:56;5.20;99.90
64689;DHT22;62504;46.070;14.492;2023-03-01T14:46:43;5.30;99.90
64689;DHT22;62504;46.070;14.492;2023-03-01T14:49:16;5.30;99.90
64689;DHT22;62504;46.070;14.492;2023-03-01T14:51:57;5.30;99.90
64689;DHT22;62504;46.070;14.492;2023-03-01T14:57:04;5.20;99.90
64689;DHT22;62504;46.070;14.492;2023-03-01T14:59:29;5.10;99.90
64689;DHT22;62504;46.070;14.492;2023-03-01T15:01:58;5.10;99.90
64689;DHT22;62504;46.070;14.492;2023-03-01T15:04:25;5.20;99.90
64689;DHT22;62504;46.070;14.492;2023-03-01T15:06:55;5.30;99.90
64689;DHT22;62504;46.070;14.492;2023-03-01T15:09:32;5.20;99.90
64689;DHT22;62504;46.070;14.492;2023-03-01T15:11:59;5.30;99.90
64689;DHT22;62504;46.070;14.492;2023-03-01T15:14:38;5.50;99.90
64689;DHT22;62504;46.070;14.492;2023-03-01T15:20:06;5.40;99.90
64689;DHT22;62504;46.070;14.492;2023-03-01T15:22:32;5.30;99.90
64689;DHT22;62504;46.070;14.492;2023-03-01T15:24:58;5.30;99.90
64689;DHT22;62504;46.070;14.492;2023-03-01T15:27:25;5.30;99.90
64689;DHT22;62504;46.070;14.492;2023-03-01T15:29:58;5.30;99.90
64689;DHT22;62504;46.070;14.492;2023-03-01T15:32:36;5.40;99.90
64689;DHT22;62504;46.070;14.492;2023-03-01T15:35:37;5.40;99.90
64689;DHT22;62504;46.070;14.492;2023-03-01T15:38:22;5.30;99.90
64689;DHT22;62504;46.070;14.492;2023-03-01T15:40:52;5.30;99.90
64689;DHT22;62504;46.070;14.492;2023-03-01T15:46:03;5.30;99.90
64689;DHT22;62504;46.070;14.492;2023-03-01T15:48:29;5.30;99.90
64689;DHT22;62504;46.070;14.492;2023-03-01T15:50:57;5.20;99.90
64689;DHT22;62504;46.070;14.492;2023-03-01T15:53:23;5.40;99.90
64689;DHT22;62504;46.070;14.492;2023-03-01T15:55:49;5.40;99.90
64689;DHT22;62504;46.070;14.492;2023-03-01T15:58:23;5.30;99.90
64689;DHT22;62504;46.070;14.492;2023-03-01T16:00:50;5.40;99.90
64689;DHT22;62504;46.070;14.492;2023-03-01T16:03:22;5.40;99.90
64689;DHT22;62504;46.070;14.492;2023-03-01T16:05:49;5.30;99.90
64689;DHT22;62504;46.070;14.492;2023-03-01T16:08:15;5.30;99.90
64689;DHT22;62504;46.070;14.492;2023-03-01T16:10:42;5.30;99.90
64689;DHT22;62504;46.070;14.492;2023-03-01T16:13:10;5.20;99.90
64689;DHT22;62504;46.070;14.492;2023-03-01T16:15:35;5.00;99.90
64689;DHT22;62504;46.070;14.492;2023-03-01T16:18:02;5.10;99.90
64689;DHT22;62504;46.070;14.492;2023-03-01T16:20:29;5.00;99.90
64689;DHT22;62504;46.070;14.492;2023-03-01T16:23:01;4.90;99.90
64689;DHT22;62504;46.070;14.492;2023-03-01T16:25:27;5.00;99.90
64689;DHT22;62504;46.070;14.492;2023-03-01T16:27:53;5.30;99.90
64689;DHT22;62504;46.070;14.492;2023-03-01T16:30:21;5.20;99.90
64689;DHT22;62504;46.070;14.492;2023-03-01T16:32:48;5.40;99.90
64689;DHT22;62504;46.070;14.492;2023-03-01T16:35:15;5.20;99.90
64689;DHT22;62504;46.070;14.492;2023-03-01T16:37:41;5.10;99.90
64689;DHT22;62504;46.070;14.492;2023-03-01T16:40:17;5.10;99.90
64689;DHT22;62504;46.070;14.492;2023-03-01T16:42:43;5.10;99.90
64689;DHT22;62504;46.070;14.492;2023-03-01T16:45:09;5.10;99.90
64689;DHT22;62504;46.070;14.492;2023-03-01T16:47:35;5.20;99.90
64689;DHT22;62504;46.070;14.492;2023-03-01T16:50:01;5.10;99.90
64689;DHT22;62504;46.070;14.492;2023-03-01T16:52:27;5.10;99.90
64689;DHT22;62504;46.070;14.492;2023-03-01T16:54:53;5.00;99.90
64689;DHT22;62504;46.070;14.492;2023-03-01T16:57:19;5.00;99.90
64689;DHT22;62504;46.070;14.492;2023-03-01T16:59:45;5.20;99.90
64689;DHT22;62504;46.070;14.492;2023-03-01T17:02:12;4.70;99.90
64689;DHT22;62504;46.070;14.492;2023-03-01T17:04:41;4.80;99.90
64689;DHT22;62504;46.070;14.492;2023-03-01T17:07:07;4.80;99.90
64689;DHT22;62504;46.070;14.492;2023-03-01T17:09:37;4.80;99.90
64689;DHT22;62504;46.070;14.492;2023-03-01T17:12:04;4.70;99.90
64689;DHT22;62504;46.070;14.492;2023-03-01T17:14:30;4.70;99.90
64689;DHT22;62504;46.070;14.492;2023-03-01T17:16:55;4.70;99.90
64689;DHT22;62504;46.070;14.492;2023-03-01T17:19:21;4.60;99.90
64689;DHT22;62504;46.070;14.492;2023-03-01T17:21:47;4.50;99.90
64689;DHT22;62504;46.070;14.492;2023-03-01T17:24:12;4.50;99.90
64689;DHT22;62504;46.070;14.492;2023-03-01T17:26:38;4.40;99.90
64689;DHT22;62504;46.070;14.492;2023-03-01T17:29:04;4.60;99.90
64689;DHT22;62504;46.070;14.492;2023-03-01T17:31:31;4.50;99.90
64689;DHT22;62504;46.070;14.492;2023-03-01T17:33:57;4.60;99.90
64689;DHT22;62504;46.070;14.492;2023-03-01T17:36:23;4.70;99.90
64689;DHT22;62504;46.070;14.492;2023-03-01T17:38:50;4.70;99.90
64689;DHT22;62504;46.070;14.492;2023-03-01T17:41:17;4.60;99.90
64689;DHT22;62504;46.070;14.492;2023-03-01T17:43:44;4.60;99.90
64689;DHT22;62504;46.070;14.492;2023-03-01T17:46:09;4.70;99.90
64689;DHT22;62504;46.070;14.492;2023-03-01T17:48:36;4.60;99.90
64689;DHT22;62504;46.070;14.492;2023-03-01T17:51:09;4.70;99.90
64689;DHT22;62504;46.070;14.492;2023-03-01T17:53:36;4.70;99.90
64689;DHT22;62504;46.070;14.492;2023-03-01T17:56:03;4.60;99.90
64689;DHT22;62504;46.070;14.492;2023-03-01T17:58:30;4.70;99.90
64689;DHT22;62504;46.070;14.492;2023-03-01T18:01:09;4.60;99.90
64689;DHT22;62504;46.070;14.492;2023-03-01T18:03:36;4.50;99.90
64689;DHT22;62504;46.070;14.492;2023-03-01T18:06:09;4.50;99.90
64689;DHT22;62504;46.070;14.492;2023-03-01T18:08:34;4.40;99.90